SAS1817 EKCH-EDDH
Flight info
| Callsign | SAS1817 |
|---|---|
| Flight time | 0h 41m |
| Altitude | 24000 |
| Route | NEXEN2A NEXEN T503 MICOS/N0440F280 N850 BOGMU BOGMU3N |
| Aircraft | A320/M-SDE3FGHIRWY/LB1 |
Departure
| Time | 2026-04-30 18:26 |
|---|---|
| Airport | Copenhagen Kastrup Airport (EKCH) |
Arrival
| Time | 2026-04-30 19:07 |
|---|---|
| Airport | Hamburg Helmut Schmidt Airport (EDDH) |
| Time | Latitude | Longitude | Altitude | Speed | Heading |
|---|---|---|---|---|---|
| 2026-04-30 18:10 | 55.62648 | 12.64555 | 24 ft | 0 kts | 282° |
| 2026-04-30 18:11 | 55.62648 | 12.64554 | 24 ft | 0 kts | 282° |
| 2026-04-30 18:13 | 55.62648 | 12.64555 | 24 ft | 0 kts | 282° |
| 2026-04-30 18:15 | 55.62639 | 12.64623 | 25 ft | 2 kts | 266° |
| 2026-04-30 18:16 | 55.62646 | 12.64650 | 25 ft | 0 kts | 196° |
| 2026-04-30 18:17 | 55.62611 | 12.64650 | 25 ft | 11 kts | 179° |
| 2026-04-30 18:17 | 55.62492 | 12.64659 | 25 ft | 2 kts | 172° |
| 2026-04-30 18:18 | 55.62488 | 12.64660 | 24 ft | 0 kts | 172° |
| 2026-04-30 18:18 | 55.62480 | 12.64662 | 24 ft | 4 kts | 172° |
| 2026-04-30 18:18 | 55.62415 | 12.64711 | 24 ft | 13 kts | 135° |
| 2026-04-30 18:18 | 55.62366 | 12.64838 | 24 ft | 12 kts | 122° |
| 2026-04-30 18:19 | 55.62306 | 12.65000 | 25 ft | 19 kts | 123° |
| 2026-04-30 18:19 | 55.62233 | 12.65169 | 25 ft | 15 kts | 154° |
| 2026-04-30 18:19 | 55.62146 | 12.65105 | 25 ft | 13 kts | 213° |
| 2026-04-30 18:19 | 55.62067 | 12.65011 | 26 ft | 16 kts | 213° |
| 2026-04-30 18:20 | 55.61960 | 12.64891 | 23 ft | 19 kts | 213° |
| 2026-04-30 18:20 | 55.61853 | 12.64769 | 26 ft | 17 kts | 213° |
| 2026-04-30 18:20 | 55.61759 | 12.64661 | 25 ft | 15 kts | 213° |
| 2026-04-30 18:20 | 55.61675 | 12.64564 | 24 ft | 14 kts | 213° |
| 2026-04-30 18:21 | 55.61592 | 12.64469 | 24 ft | 14 kts | 213° |
| 2026-04-30 18:21 | 55.61514 | 12.64379 | 24 ft | 13 kts | 213° |
| 2026-04-30 18:21 | 55.61426 | 12.64278 | 24 ft | 20 kts | 213° |
| 2026-04-30 18:21 | 55.61309 | 12.64142 | 24 ft | 19 kts | 212° |
| 2026-04-30 18:22 | 55.61201 | 12.64018 | 25 ft | 17 kts | 213° |
| 2026-04-30 18:22 | 55.61017 | 12.63808 | 26 ft | 14 kts | 213° |
| 2026-04-30 18:22 | 55.60940 | 12.63719 | 24 ft | 12 kts | 213° |
| 2026-04-30 18:23 | 55.60871 | 12.63640 | 26 ft | 11 kts | 213° |
| 2026-04-30 18:23 | 55.60806 | 12.63587 | 24 ft | 10 kts | 180° |
| 2026-04-30 18:23 | 55.60761 | 12.63652 | 24 ft | 8 kts | 131° |
| 2026-04-30 18:23 | 55.60744 | 12.63687 | 24 ft | 0 kts | 131° |
| 2026-04-30 18:24 | 55.60744 | 12.63686 | 24 ft | 0 kts | 131° |
| 2026-04-30 18:24 | 55.60715 | 12.63745 | 24 ft | 11 kts | 131° |
| 2026-04-30 18:24 | 55.60677 | 12.63839 | 25 ft | 7 kts | 101° |
| 2026-04-30 18:25 | 55.60697 | 12.63902 | 28 ft | 5 kts | 39° |
| 2026-04-30 18:25 | 55.60828 | 12.64101 | 30 ft | 52 kts | 41° |
| 2026-04-30 18:25 | 55.61275 | 12.64794 | 28 ft | 115 kts | 41° |
| 2026-04-30 18:26 | 55.62821 | 12.67222 | 761 ft | 156 kts | 41° |
| 2026-04-30 18:26 | 55.63640 | 12.68534 | 1343 ft | 166 kts | 37° |
| 2026-04-30 18:26 | 55.64565 | 12.69956 | 1716 ft | 187 kts | 37° |
| 2026-04-30 18:27 | 55.66802 | 12.73297 | 2385 ft | 235 kts | 36° |
| 2026-04-30 18:27 | 55.68105 | 12.75216 | 3022 ft | 249 kts | 37° |
| 2026-04-30 18:28 | 55.70045 | 12.80328 | 4767 ft | 263 kts | 78° |
| 2026-04-30 18:28 | 55.69982 | 12.83577 | 5697 ft | 269 kts | 103° |
| 2026-04-30 18:28 | 55.67529 | 12.88501 | 7456 ft | 286 kts | 157° |
| 2026-04-30 18:29 | 55.65538 | 12.88954 | 8263 ft | 295 kts | 187° |
| 2026-04-30 18:29 | 55.60466 | 12.82738 | 10665 ft | 309 kts | 222° |
| 2026-04-30 18:30 | 55.57619 | 12.78210 | 11102 ft | 348 kts | 222° |
| 2026-04-30 18:30 | 55.53114 | 12.71119 | 11629 ft | 394 kts | 221° |
| 2026-04-30 18:31 | 55.51040 | 12.67902 | 12226 ft | 400 kts | 221° |
| 2026-04-30 18:31 | 55.46791 | 12.61374 | 13462 ft | 410 kts | 220° |
| 2026-04-30 18:32 | 55.42428 | 12.54693 | 14627 ft | 420 kts | 220° |
| 2026-04-30 18:32 | 55.40210 | 12.51305 | 15175 ft | 424 kts | 221° |
| 2026-04-30 18:32 | 55.35725 | 12.44461 | 16281 ft | 430 kts | 221° |
| 2026-04-30 18:33 | 55.33458 | 12.41004 | 16830 ft | 433 kts | 221° |
| 2026-04-30 18:33 | 55.28871 | 12.34029 | 17905 ft | 439 kts | 221° |
| 2026-04-30 18:33 | 55.26551 | 12.30510 | 18416 ft | 442 kts | 221° |
| 2026-04-30 18:34 | 55.25006 | 12.28173 | 18757 ft | 444 kts | 221° |
| 2026-04-30 18:34 | 55.20291 | 12.21068 | 19656 ft | 450 kts | 221° |
| 2026-04-30 18:34 | 55.17909 | 12.17486 | 20103 ft | 452 kts | 221° |
| 2026-04-30 18:35 | 55.15513 | 12.13907 | 20561 ft | 454 kts | 220° |
| 2026-04-30 18:35 | 55.13043 | 12.10445 | 21018 ft | 456 kts | 218° |
| 2026-04-30 18:35 | 55.10502 | 12.07100 | 21450 ft | 459 kts | 217° |
| 2026-04-30 18:36 | 55.05295 | 12.00560 | 22272 ft | 464 kts | 216° |
| 2026-04-30 18:36 | 55.02668 | 11.97269 | 22661 ft | 466 kts | 217° |
| 2026-04-30 18:36 | 54.97414 | 11.90553 | 23442 ft | 471 kts | 217° |
| 2026-04-30 18:37 | 54.94778 | 11.87141 | 23832 ft | 473 kts | 218° |
| 2026-04-30 18:37 | 54.92135 | 11.83711 | 24166 ft | 476 kts | 218° |
| 2026-04-30 18:37 | 54.89473 | 11.80265 | 24388 ft | 477 kts | 217° |
| 2026-04-30 18:37 | 54.86805 | 11.76834 | 24442 ft | 477 kts | 217° |
| 2026-04-30 18:38 | 54.84135 | 11.73420 | 24442 ft | 477 kts | 217° |
| 2026-04-30 18:38 | 54.81459 | 11.70009 | 24436 ft | 477 kts | 217° |
| 2026-04-30 18:38 | 54.78788 | 11.66612 | 24442 ft | 477 kts | 217° |
| 2026-04-30 18:38 | 54.76113 | 11.63214 | 24442 ft | 477 kts | 217° |
| 2026-04-30 18:39 | 54.73437 | 11.59817 | 24445 ft | 477 kts | 217° |
| 2026-04-30 18:39 | 54.70764 | 11.56425 | 24446 ft | 477 kts | 217° |
| 2026-04-30 18:39 | 54.68094 | 11.53033 | 24382 ft | 476 kts | 217° |
| 2026-04-30 18:39 | 54.65423 | 11.49647 | 24451 ft | 477 kts | 217° |
| 2026-04-30 18:40 | 54.62747 | 11.46262 | 24328 ft | 474 kts | 217° |
| 2026-04-30 18:40 | 54.60101 | 11.42927 | 23601 ft | 470 kts | 217° |
| 2026-04-30 18:40 | 54.57471 | 11.39618 | 22856 ft | 466 kts | 217° |
| 2026-04-30 18:40 | 54.54866 | 11.36345 | 22155 ft | 462 kts | 217° |
| 2026-04-30 18:41 | 54.52281 | 11.33098 | 21489 ft | 458 kts | 217° |
| 2026-04-30 18:41 | 54.49727 | 11.29869 | 20856 ft | 452 kts | 217° |
| 2026-04-30 18:41 | 54.47212 | 11.26674 | 20279 ft | 447 kts | 217° |
| 2026-04-30 18:41 | 54.44719 | 11.23503 | 19660 ft | 444 kts | 216° |
| 2026-04-30 18:42 | 54.42234 | 11.20382 | 19062 ft | 440 kts | 216° |
| 2026-04-30 18:42 | 54.37306 | 11.14286 | 17789 ft | 433 kts | 215° |
| 2026-04-30 18:42 | 54.34868 | 11.11288 | 17178 ft | 429 kts | 215° |
| 2026-04-30 18:45 | 54.11706 | 10.82795 | 11529 ft | 391 kts | 214° |
| 2026-04-30 18:45 | 54.09500 | 10.80107 | 10961 ft | 389 kts | 214° |
| 2026-04-30 18:45 | 54.07308 | 10.77439 | 10358 ft | 386 kts | 214° |
| 2026-04-30 18:46 | 54.05132 | 10.74791 | 9712 ft | 383 kts | 214° |
| 2026-04-30 18:46 | 54.02982 | 10.72178 | 9478 ft | 379 kts | 214° |
| 2026-04-30 18:46 | 54.00843 | 10.69581 | 9447 ft | 375 kts | 214° |
| 2026-04-30 18:46 | 53.98768 | 10.67062 | 9456 ft | 360 kts | 214° |
| 2026-04-30 18:47 | 53.96751 | 10.64615 | 9458 ft | 348 kts | 214° |
| 2026-04-30 18:47 | 53.94796 | 10.62247 | 9459 ft | 345 kts | 214° |
| 2026-04-30 18:47 | 53.92841 | 10.59885 | 9463 ft | 346 kts | 213° |
| 2026-04-30 18:47 | 53.90883 | 10.57522 | 9459 ft | 346 kts | 213° |
| 2026-04-30 18:48 | 53.88919 | 10.55157 | 9463 ft | 346 kts | 213° |
| 2026-04-30 18:48 | 53.86960 | 10.52797 | 9461 ft | 346 kts | 213° |
| 2026-04-30 18:48 | 53.85000 | 10.50440 | 9457 ft | 345 kts | 213° |
| 2026-04-30 18:48 | 53.83048 | 10.48096 | 9455 ft | 344 kts | 213° |
| 2026-04-30 18:49 | 53.81094 | 10.45757 | 9461 ft | 343 kts | 213° |
| 2026-04-30 18:49 | 53.79147 | 10.43425 | 9459 ft | 343 kts | 213° |
| 2026-04-30 18:49 | 53.77202 | 10.41100 | 9454 ft | 337 kts | 213° |
| 2026-04-30 18:49 | 53.75343 | 10.38871 | 9452 ft | 319 kts | 213° |
| 2026-04-30 18:50 | 53.73575 | 10.36753 | 9452 ft | 304 kts | 213° |
| 2026-04-30 18:50 | 53.71866 | 10.34709 | 9449 ft | 300 kts | 213° |
| 2026-04-30 18:50 | 53.70164 | 10.32679 | 9451 ft | 299 kts | 212° |
| 2026-04-30 18:50 | 53.68471 | 10.30633 | 9436 ft | 300 kts | 215° |
| 2026-04-30 18:51 | 53.66891 | 10.28337 | 9440 ft | 301 kts | 222° |
| 2026-04-30 18:51 | 53.65469 | 10.25741 | 9438 ft | 302 kts | 229° |
| 2026-04-30 18:51 | 53.64154 | 10.23039 | 9415 ft | 303 kts | 229° |
| 2026-04-30 18:51 | 53.62818 | 10.20305 | 9284 ft | 302 kts | 229° |
| 2026-04-30 18:52 | 53.61481 | 10.17587 | 9156 ft | 301 kts | 228° |
| 2026-04-30 18:52 | 53.60144 | 10.14880 | 9032 ft | 300 kts | 228° |
| 2026-04-30 18:52 | 53.58813 | 10.12182 | 8894 ft | 299 kts | 228° |
| 2026-04-30 18:52 | 53.57485 | 10.09489 | 8774 ft | 299 kts | 228° |
| 2026-04-30 18:53 | 53.56156 | 10.06799 | 8642 ft | 299 kts | 228° |
| 2026-04-30 18:53 | 53.54831 | 10.04120 | 8521 ft | 296 kts | 228° |
| 2026-04-30 18:53 | 53.53553 | 10.01534 | 8400 ft | 277 kts | 228° |
| 2026-04-30 18:53 | 53.52346 | 9.99089 | 8259 ft | 267 kts | 227° |
| 2026-04-30 18:54 | 53.51163 | 9.96706 | 8142 ft | 264 kts | 227° |
| 2026-04-30 18:54 | 53.49990 | 9.94348 | 8018 ft | 263 kts | 227° |
| 2026-04-30 18:54 | 53.48818 | 9.91992 | 7894 ft | 262 kts | 227° |
| 2026-04-30 18:54 | 53.47649 | 9.89646 | 7776 ft | 262 kts | 227° |
| 2026-04-30 18:55 | 53.46483 | 9.87304 | 7648 ft | 261 kts | 227° |
| 2026-04-30 18:55 | 53.44159 | 9.82637 | 7402 ft | 260 kts | 227° |
| 2026-04-30 18:55 | 53.43002 | 9.80315 | 7282 ft | 260 kts | 227° |
| 2026-04-30 18:56 | 53.40686 | 9.75675 | 7038 ft | 259 kts | 227° |
| 2026-04-30 18:56 | 53.39536 | 9.73366 | 6918 ft | 258 kts | 227° |
| 2026-04-30 18:56 | 53.38385 | 9.71054 | 6794 ft | 258 kts | 227° |
| 2026-04-30 18:57 | 53.36094 | 9.66455 | 6529 ft | 256 kts | 227° |
| 2026-04-30 18:57 | 53.34955 | 9.64172 | 6418 ft | 255 kts | 227° |
| 2026-04-30 18:57 | 53.33820 | 9.61895 | 6286 ft | 254 kts | 227° |
| 2026-04-30 18:58 | 53.31724 | 9.57185 | 6031 ft | 254 kts | 241° |
| 2026-04-30 18:58 | 53.31258 | 9.54359 | 5901 ft | 255 kts | 270° |
| 2026-04-30 18:58 | 53.31682 | 9.51523 | 5775 ft | 253 kts | 302° |
| 2026-04-30 18:59 | 53.34458 | 9.48701 | 5171 ft | 236 kts | 6° |
| 2026-04-30 19:00 | 53.39044 | 9.51218 | 4998 ft | 230 kts | 36° |
| 2026-04-30 19:00 | 53.40208 | 9.52990 | 5008 ft | 226 kts | 52° |
| 2026-04-30 19:00 | 53.42214 | 9.57064 | 5009 ft | 226 kts | 53° |
| 2026-04-30 19:01 | 53.44244 | 9.61109 | 5011 ft | 227 kts | 52° |
| 2026-04-30 19:01 | 53.45260 | 9.63132 | 5003 ft | 227 kts | 52° |
| 2026-04-30 19:02 | 53.47288 | 9.67177 | 4523 ft | 226 kts | 52° |
| 2026-04-30 19:02 | 53.49307 | 9.71211 | 3925 ft | 225 kts | 52° |
| 2026-04-30 19:03 | 53.51304 | 9.75209 | 3318 ft | 224 kts | 52° |
| 2026-04-30 19:03 | 53.53190 | 9.78984 | 2756 ft | 195 kts | 52° |
| 2026-04-30 19:04 | 53.54866 | 9.82350 | 2260 ft | 182 kts | 52° |
| 2026-04-30 19:04 | 53.56429 | 9.85490 | 1763 ft | 163 kts | 53° |
| 2026-04-30 19:05 | 53.57753 | 9.88155 | 1363 ft | 140 kts | 53° |
| 2026-04-30 19:05 | 53.58977 | 9.90623 | 997 ft | 136 kts | 52° |
| 2026-04-30 19:06 | 53.60191 | 9.93072 | 641 ft | 136 kts | 51° |
| 2026-04-30 19:06 | 53.60797 | 9.94296 | 455 ft | 136 kts | 50° |
| 2026-04-30 19:06 | 53.62001 | 9.96727 | 98 ft | 135 kts | 50° |
| 2026-04-30 19:07 | 53.62914 | 9.98575 | 44 ft | 55 kts | 51° |
| 2026-04-30 19:07 | 53.63069 | 9.98938 | 46 ft | 30 kts | 70° |
| 2026-04-30 19:08 | 53.63076 | 9.99320 | 47 ft | 10 kts | 97° |
| 2026-04-30 19:08 | 53.63086 | 9.99365 | 44 ft | 0 kts | 56° |
| 2026-04-30 19:10 | 53.63164 | 9.99552 | 46 ft | 19 kts | 51° |
| 2026-04-30 19:10 | 53.63225 | 9.99695 | 48 ft | 12 kts | 77° |
| 2026-04-30 19:11 | 53.63170 | 9.99806 | 48 ft | 13 kts | 152° |
| 2026-04-30 19:11 | 53.63154 | 9.99981 | 48 ft | 9 kts | 49° |
| 2026-04-30 19:11 | 53.63180 | 10.00053 | 48 ft | 3 kts | 118° |
| 2026-04-30 19:12 | 53.63154 | 10.00094 | 48 ft | 8 kts | 139° |